Time;durP1;ratioP1;P1;durP2;ratioP2;P2;SDS_P1;SDS_P2;PMS_P1;PMS_P2;Temp;Humidity;BMP_temperature;BMP_pressure;BME280_temperature;BME280_humidity;BME280_pressure;Samples;Min_cycle;Max_cycle;Signal;HPM_P1;HPM_P2
2021/09/02 00:00:58;;;;;;;23.50;10.90;;;14.40;97.30;;;;;;5027230;28;20337;-81
2021/09/02 00:03:24;;;;;;;20.70;10.30;;;14.40;97.30;;;;;;5057661;28;20438;-82
2021/09/02 00:05:49;;;;;;;21.10;10.27;;;14.40;97.30;;;;;;5039900;28;20203;-82
2021/09/02 00:08:15;;;;;;;21.33;10.97;;;14.30;97.30;;;;;;5040077;28;20184;-82
2021/09/02 00:10:40;;;;;;;23.23;11.33;;;14.30;97.30;;;;;;5057305;28;20179;-81
2021/09/02 00:13:06;;;;;;;20.13;9.83;;;14.20;97.30;;;;;;5038750;28;20168;-81
2021/09/02 00:15:31;;;;;;;20.80;10.70;;;14.20;97.30;;;;;;5037631;28;20196;-82
2021/09/02 00:17:57;;;;;;;17.83;9.93;;;14.10;97.30;;;;;;5054644;28;20589;-82
2021/09/02 00:20:22;;;;;;;21.50;10.63;;;14.10;97.30;;;;;;5037388;28;20204;-82
2021/09/02 00:22:48;;;;;;;18.70;10.33;;;14.00;97.30;;;;;;5054767;28;20164;-82
2021/09/02 00:25:13;;;;;;;23.90;10.47;;;14.00;97.30;;;;;;5036371;28;20188;-82
2021/09/02 00:27:39;;;;;;;21.47;10.17;;;14.00;97.30;;;;;;5054353;28;20650;-82
2021/09/02 00:30:06;;;;;;;19.77;10.10;;;14.00;97.30;;;;;;5036834;28;20188;-82
2021/09/02 00:32:32;;;;;;;22.13;10.47;;;13.90;97.30;;;;;;5037520;28;20203;-82
2021/09/02 00:34:57;;;;;;;19.10;10.00;;;13.90;97.30;;;;;;5033462;28;20992;-82
2021/09/02 00:37:23;;;;;;;26.97;9.97;;;13.90;97.30;;;;;;5055138;28;20219;-82
2021/09/02 00:39:48;;;;;;;24.13;11.40;;;13.90;97.30;;;;;;5036792;28;20204;-82
2021/09/02 00:42:14;;;;;;;18.00;9.40;;;13.90;97.30;;;;;;5055020;28;20186;-82
2021/09/02 00:44:45;;;;;;;22.87;10.30;;;13.90;97.30;;;;;;5054704;28;20203;-82
2021/09/02 00:47:12;;;;;;;25.00;10.27;;;13.90;97.30;;;;;;5036580;28;20174;-81
2021/09/02 00:49:39;;;;;;;19.40;10.90;;;13.80;97.30;;;;;;5036750;28;20426;-81
2021/09/02 00:52:14;;;;;;;21.67;10.93;;;13.80;97.30;;;;;;5036585;28;20426;-82
2021/09/02 00:54:43;;;;;;;27.00;11.80;;;13.80;97.30;;;;;;5036306;28;20931;-82
2021/09/02 00:57:10;;;;;;;20.53;10.90;;;13.70;97.30;;;;;;5053744;28;20430;-82
2021/09/02 00:59:35;;;;;;;20.50;10.50;;;13.70;97.30;;;;;;5036107;28;20458;-81
2021/09/02 01:02:01;;;;;;;22.50;10.37;;;13.70;97.30;;;;;;5054189;28;20949;-81
2021/09/02 01:04:26;;;;;;;23.47;11.10;;;13.70;97.30;;;;;;5037807;28;20341;-81
2021/09/02 01:06:52;;;;;;;19.20;11.53;;;13.70;97.30;;;;;;5039058;28;20175;-81
2021/09/02 01:09:18;;;;;;;18.23;9.47;;;13.70;97.30;;;;;;5038592;28;20245;-82
2021/09/02 01:11:43;;;;;;;27.70;10.70;;;13.70;97.30;;;;;;5057636;28;20509;-82
2021/09/02 01:14:15;;;;;;;21.60;10.43;;;13.70;97.30;;;;;;5039976;28;20674;-81
2021/09/02 01:16:41;;;;;;;24.73;10.33;;;13.60;97.30;;;;;;5040866;28;20599;-81
2021/09/02 01:19:06;;;;;;;22.83;10.37;;;13.50;97.30;;;;;;5040482;28;20449;-82
2021/09/02 01:21:33;;;;;;;23.83;10.67;;;13.50;97.30;;;;;;5039461;28;20205;-82
2021/09/02 01:23:58;;;;;;;18.63;9.77;;;13.50;97.30;;;;;;5040084;28;20180;-82
2021/09/02 01:26:24;;;;;;;20.40;10.90;;;13.50;97.30;;;;;;5039779;28;20429;-81
2021/09/02 01:28:50;;;;;;;23.70;10.20;;;13.50;97.30;;;;;;5039760;28;20559;-82
2021/09/02 01:31:19;;;;;;;23.10;10.63;;;13.40;97.30;;;;;;5039432;28;20237;-82
2021/09/02 01:33:46;;;;;;;20.33;10.47;;;13.40;97.30;;;;;;5039251;28;20463;-81
2021/09/02 01:36:12;;;;;;;19.73;9.63;;;13.40;97.30;;;;;;5038646;28;20492;-81
2021/09/02 01:38:37;;;;;;;20.90;10.20;;;13.40;97.30;;;;;;5056805;28;20411;-82
2021/09/02 01:41:03;;;;;;;19.10;10.17;;;13.40;97.30;;;;;;5056558;28;20513;-82
2021/09/02 01:43:29;;;;;;;18.13;8.80;;;13.40;97.30;;;;;;5038334;28;20183;-82
2021/09/02 01:45:54;;;;;;;18.10;8.90;;;13.40;97.30;;;;;;5039400;28;20200;-81
2021/09/02 01:48:20;;;;;;;25.43;8.53;;;13.30;97.30;;;;;;5057800;28;20601;-81
2021/09/02 01:50:45;;;;;;;17.50;9.00;;;13.30;97.30;;;;;;5040619;28;20178;-81
2021/09/02 01:53:13;;;;;;;20.30;9.27;;;13.30;97.30;;;;;;5058047;28;20180;-82
2021/09/02 01:55:40;;;;;;;17.00;9.30;;;13.20;97.30;;;;;;5039881;28;20253;-81
2021/09/02 01:58:06;;;;;;;17.23;9.03;;;13.20;97.30;;;;;;5039761;28;20446;-82
2021/09/02 02:00:33;;;;;;;15.90;9.20;;;13.20;97.30;;;;;;5038803;28;20465;-81
2021/09/02 02:02:59;;;;;;;27.60;12.10;;;13.20;97.30;;;;;;5039087;28;20423;-82
2021/09/02 02:05:25;;;;;;;14.67;8.50;;;13.20;97.30;;;;;;5038716;28;20454;-82
2021/09/02 02:07:50;;;;;;;25.80;10.27;;;13.10;97.30;;;;;;5038327;28;20180;-82
2021/09/02 02:10:22;;;;;;;20.77;9.93;;;13.10;97.30;;;;;;5037503;28;20878;-82
2021/09/02 02:12:48;;;;;;;21.73;9.80;;;13.10;97.30;;;;;;5037820;28;20179;-82
2021/09/02 02:15:14;;;;;;;18.40;8.80;;;13.10;97.30;;;;;;5036942;28;20458;-82
2021/09/02 02:17:41;;;;;;;17.73;9.20;;;13.10;97.30;;;;;;5056007;28;20422;-81
2021/09/02 02:20:08;;;;;;;23.23;10.00;;;13.00;97.30;;;;;;5038090;28;20454;-82
2021/09/02 02:22:34;;;;;;;20.27;9.63;;;13.00;97.30;;;;;;5038703;28;20430;-81
2021/09/02 02:25:00;;;;;;;23.37;9.57;;;13.00;97.30;;;;;;5056302;28;20545;-82
2021/09/02 02:27:25;;;;;;;23.20;9.87;;;13.00;97.30;;;;;;5039426;28;20461;-82
2021/09/02 02:29:51;;;;;;;18.77;10.67;;;13.00;97.30;;;;;;5038943;28;20180;-82
2021/09/02 02:32:16;;;;;;;23.03;11.87;;;13.00;97.30;;;;;;5055604;28;20176;-81
2021/09/02 02:34:42;;;;;;;24.73;11.87;;;13.00;97.30;;;;;;5037912;28;20231;-82
2021/09/02 02:37:08;;;;;;;19.60;9.80;;;13.00;97.30;;;;;;5039010;28;20224;-81
2021/09/02 02:39:37;;;;;;;22.43;11.13;;;13.00;97.30;;;;;;5056156;28;20262;-82
2021/09/02 02:42:05;;;;;;;21.23;10.23;;;13.00;97.30;;;;;;5037316;28;20646;-82
2021/09/02 02:44:30;;;;;;;19.60;9.93;;;13.00;97.30;;;;;;5055249;28;20421;-81
2021/09/02 02:46:56;;;;;;;21.03;9.70;;;13.00;97.30;;;;;;5055202;28;20771;-81
2021/09/02 02:49:21;;;;;;;25.17;10.40;;;13.00;97.30;;;;;;5055371;28;20549;-81
2021/09/02 02:51:47;;;;;;;21.13;10.63;;;13.00;97.30;;;;;;5036610;28;20314;-81
2021/09/02 02:54:12;;;;;;;25.20;11.37;;;13.00;97.30;;;;;;5037275;28;20195;-81
2021/09/02 02:56:38;;;;;;;18.53;9.70;;;13.00;97.30;;;;;;5038588;28;20605;-80
2021/09/02 02:59:03;;;;;;;19.73;10.07;;;13.00;97.30;;;;;;5039344;28;20172;-82
2021/09/02 03:01:29;;;;;;;20.80;10.50;;;12.90;97.30;;;;;;5038282;28;20261;-81
2021/09/02 03:03:54;;;;;;;17.10;9.20;;;12.90;97.30;;;;;;5038533;28;20215;-81
2021/09/02 03:06:20;;;;;;;20.17;10.20;;;12.90;97.30;;;;;;5037289;28;20612;-82
2021/09/02 03:08:45;;;;;;;19.00;9.97;;;12.90;97.30;;;;;;5037183;28;20279;-80
2021/09/02 03:11:12;;;;;;;24.23;11.10;;;12.90;97.30;;;;;;5036842;28;20226;-82
2021/09/02 03:13:39;;;;;;;18.23;9.70;;;12.80;97.30;;;;;;5037418;28;20209;-82
2021/09/02 03:16:05;;;;;;;23.00;10.57;;;12.80;97.30;;;;;;5037251;28;20544;-82
2021/09/02 03:18:30;;;;;;;24.40;12.10;;;12.80;97.30;;;;;;5036312;28;20529;-81
2021/09/02 03:20:56;;;;;;;27.13;10.80;;;12.80;97.30;;;;;;5035682;28;20195;-81
2021/09/02 03:23:21;;;;;;;27.77;11.87;;;12.80;97.30;;;;;;5036414;28;20183;-82
2021/09/02 03:25:47;;;;;;;23.73;11.43;;;12.80;97.30;;;;;;5035781;28;20200;-82
2021/09/02 03:28:12;;;;;;;28.07;11.87;;;12.80;97.30;;;;;;5036657;28;20877;-81
2021/09/02 03:30:38;;;;;;;22.57;10.87;;;12.70;97.30;;;;;;5036846;28;20180;-81
2021/09/02 03:33:03;;;;;;;22.00;10.93;;;12.70;97.30;;;;;;5037765;28;20183;-81
2021/09/02 03:35:29;;;;;;;25.60;12.93;;;12.80;97.30;;;;;;5037665;28;20340;-81
2021/09/02 03:37:54;;;;;;;30.50;12.70;;;12.80;97.30;;;;;;5037377;28;20183;-81
2021/09/02 03:40:19;;;;;;;26.07;12.30;;;12.80;97.30;;;;;;5055144;28;20267;-81
2021/09/02 03:42:45;;;;;;;35.83;12.57;;;12.80;97.30;;;;;;5054550;28;20253;-82
2021/09/02 03:45:11;;;;;;;30.80;12.57;;;12.80;97.30;;;;;;5054692;28;20188;-82
2021/09/02 03:47:37;;;;;;;25.33;11.20;;;12.80;97.30;;;;;;5037007;28;20171;-82
2021/09/02 03:50:04;;;;;;;24.87;12.23;;;12.80;97.30;;;;;;5036731;28;20180;-82
2021/09/02 03:52:29;;;;;;;32.53;13.30;;;12.80;97.30;;;;;;5034105;28;20208;-82
2021/09/02 03:54:55;;;;;;;26.90;12.67;;;12.80;97.30;;;;;;5045773;28;20477;-81
2021/09/02 03:57:20;;;;;;;27.00;13.10;;;12.80;97.30;;;;;;5053669;28;20203;-82
2021/09/02 03:59:46;;;;;;;30.50;14.87;;;12.80;97.30;;;;;;5035739;28;20253;-81
2021/09/02 04:02:11;;;;;;;24.97;13.03;;;12.70;97.30;;;;;;5035561;28;20179;-81
2021/09/02 04:04:37;;;;;;;26.97;12.47;;;12.70;97.30;;;;;;5035805;28;20206;-82
2021/09/02 04:07:02;;;;;;;24.33;13.27;;;12.70;97.30;;;;;;5035832;28;20271;-82
2021/09/02 04:09:28;;;;;;;31.00;13.20;;;12.80;97.30;;;;;;5037032;28;20176;-81
2021/09/02 04:11:53;;;;;;;32.03;12.20;;;12.80;97.30;;;;;;5037151;28;20269;-81
2021/09/02 04:14:19;;;;;;;29.27;11.20;;;12.80;97.30;;;;;;5037206;28;20203;-82
2021/09/02 04:16:44;;;;;;;25.43;12.50;;;12.80;97.30;;;;;;5037273;28;20233;-82
2021/09/02 04:19:10;;;;;;;19.50;9.83;;;12.80;97.30;;;;;;5036574;28;20179;-81
2021/09/02 04:21:35;;;;;;;30.03;12.97;;;12.80;97.30;;;;;;5035916;28;20183;-82
2021/09/02 04:24:01;;;;;;;24.03;11.20;;;12.70;97.30;;;;;;5035986;28;20254;-82
2021/09/02 04:26:26;;;;;;;22.53;12.13;;;12.70;97.30;;;;;;5036249;28;20176;-82
2021/09/02 04:28:52;;;;;;;23.43;11.53;;;12.70;97.30;;;;;;5035461;28;20172;-81
2021/09/02 04:31:17;;;;;;;27.43;12.30;;;12.70;97.30;;;;;;5034856;28;20799;-82
2021/09/02 04:33:43;;;;;;;22.50;11.13;;;12.60;97.30;;;;;;5034778;28;20175;-81
2021/09/02 04:36:08;;;;;;;26.90;12.90;;;12.60;97.30;;;;;;5034941;28;20577;-82
2021/09/02 04:38:34;;;;;;;27.00;12.20;;;12.60;97.30;;;;;;5034518;28;20179;-81
2021/09/02 04:40:59;;;;;;;32.90;12.40;;;12.60;97.30;;;;;;5035419;28;20219;-81
2021/09/02 04:43:25;;;;;;;23.07;11.57;;;12.60;97.30;;;;;;5035654;28;20309;-82
2021/09/02 04:45:50;;;;;;;27.23;12.07;;;12.60;97.30;;;;;;5036592;28;20204;-81
2021/09/02 04:48:19;;;;;;;24.77;12.57;;;12.60;97.30;;;;;;5037603;28;20178;-81
2021/09/02 04:50:46;;;;;;;26.10;12.23;;;12.60;97.30;;;;;;5036183;28;20560;-82
2021/09/02 04:53:12;;;;;;;26.67;12.50;;;12.60;97.30;;;;;;5036514;28;20427;-82
2021/09/02 04:55:38;;;;;;;33.23;12.70;;;12.60;97.30;;;;;;5035979;28;20449;-82
2021/09/02 04:58:05;;;;;;;21.20;11.50;;;12.60;97.30;;;;;;5023845;28;20180;-82
2021/09/02 05:00:31;;;;;;;31.30;13.13;;;12.60;97.30;;;;;;5021232;28;20470;-82
2021/09/02 05:02:57;;;;;;;31.03;13.00;;;12.60;97.30;;;;;;5035980;28;20421;-82
2021/09/02 05:05:22;;;;;;;23.10;12.13;;;12.60;97.30;;;;;;5035295;28;20447;-82
2021/09/02 05:07:48;;;;;;;28.97;13.90;;;12.60;97.30;;;;;;5034916;28;20180;-82
2021/09/02 05:10:14;;;;;;;29.17;15.00;;;12.60;97.30;;;;;;5035036;28;20186;-81
2021/09/02 05:12:40;;;;;;;31.20;13.67;;;12.60;97.30;;;;;;5034854;28;20278;-82
2021/09/02 05:15:06;;;;;;;31.43;14.43;;;12.60;97.30;;;;;;5035008;28;20253;-82
2021/09/02 05:17:31;;;;;;;33.23;14.80;;;12.60;97.30;;;;;;5035355;28;20456;-81
2021/09/02 05:19:57;;;;;;;34.57;14.10;;;12.60;97.30;;;;;;5034970;28;20933;-82
2021/09/02 05:22:22;;;;;;;26.70;13.03;;;12.60;97.30;;;;;;5036188;28;20176;-81
2021/09/02 05:24:48;;;;;;;32.53;13.77;;;12.70;97.30;;;;;;5037178;28;20206;-84
2021/09/02 05:27:14;;;;;;;33.73;14.33;;;12.70;97.30;;;;;;5040150;28;20221;-82
2021/09/02 05:29:39;;;;;;;36.33;16.67;;;12.70;97.30;;;;;;5038927;28;20735;-82
2021/09/02 05:32:05;;;;;;;38.03;15.17;;;12.80;97.30;;;;;;5035259;28;20176;-82
2021/09/02 05:34:31;;;;;;;33.30;13.87;;;12.80;97.30;;;;;;5034579;28;20215;-82
2021/09/02 05:36:56;;;;;;;33.03;14.07;;;12.90;97.30;;;;;;5035387;28;20440;-82
2021/09/02 05:39:22;;;;;;;37.00;16.10;;;12.90;97.30;;;;;;5035715;28;20279;-82
2021/09/02 05:41:48;;;;;;;36.73;15.77;;;13.00;97.30;;;;;;5035199;28;20235;-82
2021/09/02 05:44:14;;;;;;;35.43;15.17;;;13.00;97.30;;;;;;5034458;28;20206;-82
2021/09/02 05:46:40;;;;;;;43.37;16.50;;;13.10;97.30;;;;;;5033671;28;20492;-81
2021/09/02 05:49:06;;;;;;;37.17;16.13;;;13.10;97.30;;;;;;5052548;28;20420;-82
2021/09/02 05:51:31;;;;;;;31.77;14.60;;;13.20;97.30;;;;;;5055846;28;20215;-81
2021/09/02 05:53:57;;;;;;;40.37;15.40;;;13.30;97.30;;;;;;5037841;28;20206;-82
2021/09/02 05:56:22;;;;;;;30.97;14.87;;;13.30;97.30;;;;;;5038271;28;20642;-82
2021/09/02 05:58:48;;;;;;;36.47;16.30;;;13.40;97.30;;;;;;5038726;28;20208;-82
2021/09/02 06:01:15;;;;;;;44.90;16.57;;;13.40;97.30;;;;;;5038736;28;20693;-82
2021/09/02 06:03:41;;;;;;;39.10;16.40;;;13.50;97.30;;;;;;5039151;28;20172;-82
2021/09/02 06:06:07;;;;;;;36.93;15.37;;;13.60;97.30;;;;;;5038771;28;20469;-82
2021/09/02 06:08:36;;;;;;;39.67;16.40;;;13.70;97.30;;;;;;5038255;28;20419;-82
2021/09/02 06:11:05;;;;;;;39.83;15.87;;;13.80;97.30;;;;;;5044175;28;20188;-81
2021/09/02 06:13:31;;;;;;;37.60;15.60;;;14.00;97.30;;;;;;5055910;28;20513;-81
2021/09/02 06:15:57;;;;;;;39.90;16.47;;;14.00;97.30;;;;;;5038107;28;20478;-82
2021/09/02 06:18:22;;;;;;;42.13;17.10;;;14.10;97.30;;;;;;5038126;28;20419;-82
2021/09/02 06:20:48;;;;;;;37.50;16.07;;;14.20;97.30;;;;;;5019681;28;20196;-81
2021/09/02 06:23:13;;;;;;;39.40;17.47;;;14.20;97.30;;;;;;5017148;28;20169;-82
2021/09/02 06:25:39;;;;;;;42.00;16.87;;;14.30;97.30;;;;;;5022541;28;20184;-82
2021/09/02 06:28:04;;;;;;;40.90;16.90;;;14.30;97.30;;;;;;5035756;28;20175;-82
2021/09/02 06:30:30;;;;;;;34.97;15.67;;;14.40;97.30;;;;;;5037047;28;20608;-82
2021/09/02 06:32:56;;;;;;;40.13;16.77;;;14.50;97.30;;;;;;5037662;28;20186;-82
2021/09/02 06:35:22;;;;;;;36.63;13.97;;;14.50;97.30;;;;;;5037028;28;20227;-82
2021/09/02 06:37:47;;;;;;;38.20;15.40;;;14.60;97.30;;;;;;5038552;28;20176;-81
2021/09/02 06:40:13;;;;;;;38.33;15.70;;;14.70;97.30;;;;;;5038357;28;20203;-81
2021/09/02 06:42:39;;;;;;;35.63;14.60;;;14.80;97.30;;;;;;5038441;28;20190;-82
2021/09/02 06:45:05;;;;;;;33.20;15.40;;;14.80;97.30;;;;;;5037614;28;20975;-82
2021/09/02 06:47:31;;;;;;;34.17;15.17;;;14.90;97.30;;;;;;5037339;28;20224;-81
2021/09/02 06:49:56;;;;;;;34.13;14.70;;;14.90;97.30;;;;;;5055225;28;20427;-82
2021/09/02 06:52:22;;;;;;;44.67;15.43;;;15.00;97.30;;;;;;5055548;28;20184;-82
2021/09/02 06:54:47;;;;;;;37.27;14.33;;;15.00;97.30;;;;;;5037045;28;20582;-82
2021/09/02 06:57:13;;;;;;;30.33;14.50;;;15.10;97.30;;;;;;5036522;28;20305;-82
2021/09/02 06:59:38;;;;;;;29.43;14.63;;;15.20;97.30;;;;;;5019426;28;20186;-82
2021/09/02 07:02:04;;;;;;;29.17;13.43;;;15.20;97.30;;;;;;5033622;28;20665;-82
2021/09/02 07:04:29;;;;;;;26.83;12.60;;;15.30;97.30;;;;;;5036453;28;20207;-82
2021/09/02 07:06:55;;;;;;;31.47;13.53;;;15.30;97.30;;;;;;5036305;28;20259;-83
2021/09/02 07:09:21;;;;;;;36.60;14.03;;;15.40;97.30;;;;;;5035432;28;20179;-83
2021/09/02 07:11:47;;;;;;;34.27;14.40;;;15.40;97.30;;;;;;5037380;28;20180;-82
2021/09/02 07:14:12;;;;;;;32.80;13.40;;;15.50;97.30;;;;;;5055229;28;20533;-83
2021/09/02 07:16:38;;;;;;;30.30;15.10;;;15.50;97.30;;;;;;5037081;28;20653;-83
2021/09/02 07:19:04;;;;;;;40.63;14.60;;;15.60;97.30;;;;;;5054463;28;20228;-82
2021/09/02 07:21:29;;;;;;;30.80;14.50;;;15.60;97.30;;;;;;5054593;28;20252;-83
2021/09/02 07:23:55;;;;;;;31.67;14.00;;;15.70;97.30;;;;;;5054041;28;20168;-82
2021/09/02 07:26:20;;;;;;;44.20;16.10;;;15.70;97.30;;;;;;5036560;28;20180;-82
2021/09/02 07:28:46;;;;;;;30.80;13.70;;;15.80;97.30;;;;;;5036324;28;20271;-83
2021/09/02 07:31:12;;;;;;;38.23;15.40;;;15.80;97.30;;;;;;5052806;28;20180;-83
2021/09/02 07:33:38;;;;;;;34.57;14.70;;;15.90;97.30;;;;;;5034977;28;20597;-83
2021/09/02 07:36:03;;;;;;;36.10;14.50;;;16.00;97.30;;;;;;5052094;28;20477;-82
2021/09/02 07:38:29;;;;;;;38.33;14.70;;;16.00;97.30;;;;;;5052765;28;20183;-83
2021/09/02 07:40:56;;;;;;;35.77;14.70;;;16.10;97.30;;;;;;5034367;28;20678;-83
2021/09/02 07:43:21;;;;;;;30.37;13.90;;;16.10;97.30;;;;;;5035253;28;20488;-82
2021/09/02 07:45:47;;;;;;;32.97;15.20;;;16.20;97.30;;;;;;5036223;28;20936;-82
2021/09/02 07:48:12;;;;;;;26.00;14.50;;;16.30;97.30;;;;;;5036024;28;20241;-82
2021/09/02 07:50:38;;;;;;;31.20;14.70;;;16.30;97.30;;;;;;5032927;28;20172;-82
2021/09/02 07:53:04;;;;;;;40.10;14.57;;;16.40;97.30;;;;;;5033693;28;20186;-82
2021/09/02 07:55:30;;;;;;;30.53;15.73;;;16.50;97.30;;;;;;5017889;28;20243;-82
2021/09/02 07:57:56;;;;;;;33.27;15.20;;;16.60;97.30;;;;;;5034870;28;20472;-82
2021/09/02 08:00:22;;;;;;;34.43;15.67;;;16.70;97.30;;;;;;5033866;28;20196;-82
2021/09/02 08:02:47;;;;;;;37.43;15.03;;;16.80;97.30;;;;;;5029165;28;20422;-82
2021/09/02 08:05:14;;;;;;;32.13;14.87;;;16.90;97.30;;;;;;5022653;28;20196;-82
2021/09/02 08:07:55;;;;;;;42.53;16.10;;;16.90;97.30;;;;;;5032947;28;20180;-82
2021/09/02 08:10:23;;;;;;;27.77;15.00;;;17.00;97.30;;;;;;5018887;28;20422;-82
2021/09/02 08:12:49;;;;;;;27.80;14.40;;;17.00;97.30;;;;;;5033514;28;20419;-82
2021/09/02 08:15:16;;;;;;;34.90;16.40;;;17.00;97.30;;;;;;5049035;28;20491;-82
2021/09/02 08:17:43;;;;;;;31.00;14.57;;;17.00;97.30;;;;;;5014808;28;20514;-82
2021/09/02 08:20:10;;;;;;;31.37;15.43;;;17.10;97.30;;;;;;5018385;28;21120;-83
2021/09/02 08:22:37;;;;;;;32.40;14.50;;;17.20;97.30;;;;;;5035403;28;20414;-82
2021/09/02 08:25:03;;;;;;;37.27;14.50;;;17.20;97.30;;;;;;5053556;28;20870;-82
2021/09/02 08:27:29;;;;;;;31.60;14.80;;;17.30;97.30;;;;;;5035092;28;20937;-83
2021/09/02 08:29:55;;;;;;;28.30;12.73;;;17.40;97.30;;;;;;5052930;28;20438;-82
2021/09/02 08:32:21;;;;;;;25.20;13.03;;;17.40;97.30;;;;;;5052445;28;20422;-82
2021/09/02 08:34:46;;;;;;;32.17;11.37;;;17.50;97.30;;;;;;5001500;28;982949;-81
2021/09/02 08:37:12;;;;;;;27.60;12.20;;;17.60;97.30;;;;;;5036289;28;20188;-82
2021/09/02 08:39:37;;;;;;;28.43;12.30;;;17.70;97.30;;;;;;5034914;28;20180;-82
2021/09/02 08:42:05;;;;;;;21.23;11.20;;;17.80;97.30;;;;;;5053437;28;20253;-82
2021/09/02 08:44:31;;;;;;;21.87;11.60;;;17.90;97.30;;;;;;5053375;28;20194;-82
2021/09/02 08:46:56;;;;;;;23.70;10.43;;;18.00;97.30;;;;;;5052899;28;20505;-82
2021/09/02 08:49:24;;;;;;;32.33;11.10;;;18.10;97.30;;;;;;5036699;28;20207;-82
2021/09/02 08:51:50;;;;;;;20.70;9.00;;;18.20;97.30;;;;;;5036631;28;20666;-82
2021/09/02 08:54:17;;;;;;;22.27;9.27;;;18.30;97.30;;;;;;5036431;28;20477;-82
2021/09/02 08:56:43;;;;;;;24.00;9.80;;;18.40;97.30;;;;;;5054154;28;20454;-81
2021/09/02 08:59:08;;;;;;;26.73;9.07;;;18.40;97.30;;;;;;5036131;28;20445;-81
2021/09/02 09:01:34;;;;;;;25.23;9.40;;;18.50;97.30;;;;;;5036450;28;20191;-82
2021/09/02 09:04:09;;;;;;;23.80;8.23;;;18.50;97.30;;;;;;5035277;28;20279;-81
2021/09/02 09:06:35;;;;;;;18.07;8.37;;;18.50;97.30;;;;;;5016799;28;20553;-82
2021/09/02 09:09:00;;;;;;;20.10;7.40;;;18.50;97.30;;;;;;5016102;28;20419;-82
2021/09/02 09:11:30;;;;;;;17.60;6.60;;;18.60;97.30;;;;;;5051491;28;20227;-82
2021/09/02 09:14:13;;;;;;;20.33;8.70;;;18.70;97.30;;;;;;5034538;28;20186;-82
2021/09/02 09:16:52;;;;;;;12.00;5.27;;;18.80;97.30;;;;;;5034735;28;20422;-82
2021/09/02 09:19:50;;;;;;;12.70;5.80;;;18.80;97.30;;;;;;5034164;28;20422;-81
2021/09/02 09:22:17;;;;;;;13.67;6.47;;;18.90;97.30;;;;;;5035731;28;20498;-82
2021/09/02 09:24:50;;;;;;;18.30;6.03;;;18.90;97.30;;;;;;5055434;28;20502;-82
2021/09/02 09:27:19;;;;;;;13.03;5.73;;;19.00;97.30;;;;;;5039756;28;20769;-82
2021/09/02 09:29:53;;;;;;;11.63;5.40;;;19.00;97.30;;;;;;5057397;28;20417;-82
2021/09/02 09:32:19;;;;;;;9.43;5.53;;;19.10;97.30;;;;;;5041668;28;20430;-82
2021/09/02 09:34:50;;;;;;;15.73;6.20;;;19.20;97.30;;;;;;5025336;28;20571;-82
2021/09/02 09:37:16;;;;;;;18.10;6.77;;;19.30;97.30;;;;;;5022721;28;20683;-82
2021/09/02 09:39:43;;;;;;;10.77;6.47;;;19.40;97.30;;;;;;5030718;28;20427;-82
2021/09/02 09:42:09;;;;;;;13.27;7.60;;;19.40;97.30;;;;;;5036981;28;20414;-82
2021/09/02 09:44:34;;;;;;;17.10;6.37;;;19.50;97.30;;;;;;5036060;28;20795;-81
2021/09/02 09:47:12;;;;;;;15.77;6.70;;;19.60;97.30;;;;;;5053706;28;20575;-81
2021/09/02 09:49:47;;;;;;;21.00;7.40;;;19.70;97.30;;;;;;5056021;28;20156;-82
2021/09/02 09:52:25;;;;;;;13.80;6.67;;;19.80;97.30;;;;;;5037968;28;20448;-82
2021/09/02 09:54:51;;;;;;;19.10;6.73;;;19.80;97.30;;;;;;5038412;28;20451;-81
2021/09/02 09:57:17;;;;;;;19.80;7.10;;;19.80;97.30;;;;;;5019535;28;20416;-82
2021/09/02 09:59:44;;;;;;;13.40;6.07;;;19.80;97.30;;;;;;5040771;28;20462;-82
2021/09/02 10:02:11;;;;;;;12.40;6.77;;;19.90;97.30;;;;;;5031382;28;20210;-82
2021/09/02 10:04:40;;;;;;;13.67;6.27;;;19.90;97.30;;;;;;5033272;28;20442;-82
2021/09/02 10:07:06;;;;;;;12.93;5.97;;;20.00;97.30;;;;;;5038192;28;20411;-82
2021/09/02 10:09:35;;;;;;;11.20;6.00;;;20.00;97.30;;;;;;5038466;28;20933;-82
2021/09/02 10:12:04;;;;;;;14.10;6.10;;;20.00;97.30;;;;;;5031013;28;20176;-81
2021/09/02 10:14:30;;;;;;;10.90;6.20;;;20.10;97.30;;;;;;5037510;28;20960;-82
2021/09/02 10:17:00;;;;;;;11.70;5.67;;;20.10;97.30;;;;;;5019926;28;20431;-82
2021/09/02 10:19:27;;;;;;;12.27;5.70;;;20.20;97.30;;;;;;5017180;28;20407;-82
2021/09/02 10:21:56;;;;;;;14.80;6.93;;;20.40;97.30;;;;;;5052555;28;20457;-84
2021/09/02 10:24:35;;;;;;;13.80;6.80;;;20.50;97.30;;;;;;5036043;28;20434;-83
2021/09/02 10:27:19;;;;;;;12.30;6.40;;;20.60;97.30;;;;;;5043760;28;20434;-81
2021/09/02 10:29:45;;;;;;;17.13;6.83;;;20.50;97.30;;;;;;5019756;28;20419;-80
2021/09/02 10:32:23;;;;;;;9.90;6.43;;;20.50;97.30;;;;;;5028491;28;20851;-82
2021/09/02 10:35:12;;;;;;;17.07;6.83;;;20.50;97.30;;;;;;5051553;28;20468;-83
2021/09/02 10:37:43;;;;;;;10.30;5.77;;;20.50;97.30;;;;;;5050384;28;20437;-83
2021/09/02 10:40:35;;;;;;;11.70;6.10;;;20.70;97.30;;;;;;5040408;28;20465;-83
2021/09/02 10:43:01;;;;;;;14.87;6.23;;;20.90;97.30;;;;;;5039687;28;20968;-82
2021/09/02 10:45:30;;;;;;;15.37;6.37;;;21.10;97.30;;;;;;5033549;28;20525;-82
2021/09/02 10:48:00;;;;;;;11.50;6.47;;;21.20;97.30;;;;;;5024907;28;20191;-82
2021/09/02 10:50:28;;;;;;;18.10;8.23;;;21.30;97.30;;;;;;5052693;28;21016;-82
2021/09/02 10:53:06;;;;;;;18.67;8.30;;;21.20;97.30;;;;;;5036470;28;20505;-83
2021/09/02 10:55:33;;;;;;;17.43;7.70;;;21.10;97.30;;;;;;5016339;28;21084;-82
2021/09/02 10:58:09;;;;;;;13.90;6.70;;;21.10;97.30;;;;;;5020618;28;20451;-83
2021/09/02 11:00:37;;;;;;;12.43;6.40;;;21.10;97.30;;;;;;5034139;28;20443;-83
2021/09/02 11:03:17;;;;;;;15.10;7.57;;;21.10;97.30;;;;;;5036382;28;20423;-83
2021/09/02 11:05:51;;;;;;;17.13;8.50;;;21.20;97.30;;;;;;5054917;28;20971;-83
2021/09/02 11:08:33;;;;;;;20.23;8.10;;;21.20;97.30;;;;;;5037802;28;20422;-84
2021/09/02 11:11:18;;;;;;;17.73;7.90;;;21.40;97.30;;;;;;5051584;28;20431;-84
2021/09/02 11:13:46;;;;;;;14.47;7.37;;;21.50;97.30;;;;;;5044200;28;20438;-83
2021/09/02 11:16:14;;;;;;;14.67;7.37;;;21.60;97.30;;;;;;5038469;28;20863;-84
2021/09/02 11:18:51;;;;;;;16.60;6.87;;;21.70;97.30;;;;;;5023805;28;20880;-82
2021/09/02 11:21:25;;;;;;;16.90;7.50;;;21.70;97.30;;;;;;5033749;28;20798;-83
2021/09/02 11:23:57;;;;;;;14.60;6.80;;;21.70;96.90;;;;;;5034716;28;20427;-82
2021/09/02 11:26:34;;;;;;;19.83;7.67;;;21.50;97.10;;;;;;5035275;28;20422;-83
2021/09/02 11:29:23;;;;;;;16.70;7.17;;;21.40;96.90;;;;;;5019729;28;20426;-83
2021/09/02 11:32:06;;;;;;;13.03;6.20;;;21.30;96.50;;;;;;5021407;28;20472;-85
2021/09/02 11:34:32;;;;;;;11.27;6.40;;;21.20;97.30;;;;;;5026193;28;20885;-84
2021/09/02 11:37:06;;;;;;;13.40;6.90;;;21.20;97.30;;;;;;5021812;28;20440;-84
2021/09/02 11:39:34;;;;;;;12.10;7.23;;;21.20;97.30;;;;;;5023143;28;20435;-84
2021/09/02 11:42:02;;;;;;;11.87;7.70;;;21.20;97.30;;;;;;5031546;28;20506;-84
2021/09/02 11:44:27;;;;;;;12.47;6.10;;;21.30;97.30;;;;;;5026998;28;20525;-84
2021/09/02 11:46:55;;;;;;;14.47;6.03;;;21.50;97.30;;;;;;5026845;28;20517;-84
2021/09/02 11:49:20;;;;;;;14.13;6.90;;;21.70;96.20;;;;;;5015964;28;20177;-85
2021/09/02 11:51:57;;;;;;;10.93;6.33;;;21.70;96.40;;;;;;5024979;28;20503;-84
2021/09/02 11:54:23;;;;;;;12.63;6.70;;;21.60;96.30;;;;;;5021903;28;20215;-85
2021/09/02 11:56:49;;;;;;;12.23;6.70;;;21.50;97.10;;;;;;5025001;28;20440;-84
2021/09/02 11:59:14;;;;;;;14.57;6.90;;;21.40;96.90;;;;;;5020162;28;20930;-85
2021/09/02 12:01:44;;;;;;;17.37;6.57;;;21.40;97.10;;;;;;5022050;28;20876;-84
2021/09/02 12:04:19;;;;;;;11.73;4.70;;;21.50;97.20;;;;;;5013176;28;20674;-84
2021/09/02 12:06:46;;;;;;;12.83;5.90;;;21.80;97.30;;;;;;5016404;28;20424;-85
2021/09/02 12:09:17;;;;;;;14.90;7.00;;;22.10;95.10;;;;;;5022527;28;20463;-84
2021/09/02 12:11:43;;;;;;;11.73;5.57;;;22.30;96.20;;;;;;5020457;28;21084;-84
2021/09/02 12:14:19;;;;;;;11.07;4.90;;;22.50;96.00;;;;;;5022683;28;20507;-85
2021/09/02 12:16:58;;;;;;;12.97;5.90;;;22.70;94.60;;;;;;5025080;28;20234;-83
2021/09/02 12:19:23;;;;;;;9.67;5.57;;;22.90;92.10;;;;;;5031615;28;20423;-84
2021/09/02 12:22:14;;;;;;;8.10;4.30;;;23.00;93.10;;;;;;5018300;28;20820;-84
2021/09/02 12:24:39;;;;;;;9.63;4.60;;;23.10;91.30;;;;;;5023012;28;20307;-82
2021/09/02 12:27:05;;;;;;;7.60;4.67;;;23.30;92.80;;;;;;5030259;28;20863;-83
2021/09/02 12:29:46;;;;;;;8.13;5.40;;;23.50;91.30;;;;;;5030175;28;20515;-81
2021/09/02 12:32:18;;;;;;;10.13;4.93;;;23.60;91.10;;;;;;5029111;28;20438;-83